createdAt,value
2022-09-28T00:01:07.242Z,75405.34
2022-09-28T00:03:34.317Z,75413.03
2022-09-28T00:06:03.005Z,75399.56
2022-09-28T00:08:30.073Z,75413.03
2022-09-28T00:10:57.527Z,75418.81
2022-09-28T00:13:24.683Z,75422.66
2022-09-28T00:16:01.195Z,75428.44
2022-09-28T00:18:28.442Z,75434.22
2022-09-28T00:21:10.147Z,75445.78
2022-09-28T00:23:55.390Z,75443.88
2022-09-28T00:26:22.955Z,75438.09
2022-09-28T00:28:57.193Z,75426.53
2022-09-28T00:31:25.253Z,75434.22
2022-09-28T00:33:55.324Z,75434.22
2022-09-28T00:36:21.940Z,75432.31
2022-09-28T00:38:48.589Z,75436.16
2022-09-28T00:41:16.134Z,75443.88
2022-09-28T00:43:42.838Z,75449.63
2022-09-28T00:46:34.760Z,75455.41
2022-09-28T00:49:07.497Z,75470.81
2022-09-28T00:51:35.155Z,75476.59
2022-09-28T00:54:04.457Z,75482.38
2022-09-28T00:56:35.415Z,75495.88
2022-09-28T00:59:04.719Z,75499.72
2022-09-28T01:01:31.607Z,75503.59
2022-09-28T01:03:59.814Z,75515.13
2022-09-28T01:06:31.080Z,75509.34
2022-09-28T01:09:02.642Z,75499.72
2022-09-28T01:11:33.961Z,75507.44
2022-09-28T01:14:08.401Z,75507.44
2022-09-28T01:17:12.361Z,75507.44
2022-09-28T01:20:00.393Z,75509.34
2022-09-28T01:22:47.231Z,75511.28
2022-09-28T01:25:23.239Z,75522.84
2022-09-28T01:27:54.543Z,75524.78
2022-09-28T01:30:22.033Z,75522.84
2022-09-28T01:33:09.643Z,75511.28
2022-09-28T01:35:44.458Z,75480.47
2022-09-28T01:38:14.050Z,75484.31
2022-09-28T01:40:41.900Z,75484.31
2022-09-28T01:43:20.486Z,75472.75
2022-09-28T01:46:07.363Z,75459.28
2022-09-28T01:48:45.169Z,75459.28
2022-09-28T01:51:22.575Z,75461.19
2022-09-28T01:53:53.680Z,75461.19
2022-09-28T01:56:30.954Z,75461.19
2022-09-28T01:59:10.365Z,75466.97
2022-09-28T02:01:47.886Z,75480.47
2022-09-28T02:04:20.083Z,75484.31
2022-09-28T02:07:02.352Z,75493.94
2022-09-28T02:09:47.263Z,75495.88
2022-09-28T02:12:41.002Z,75515.13
2022-09-28T02:15:23.097Z,75515.13
2022-09-28T02:17:50.648Z,75526.69
2022-09-28T02:20:18.472Z,75540.19
2022-09-28T02:22:53.479Z,75549.81
2022-09-28T02:25:34.708Z,75549.81
2022-09-28T02:28:07.176Z,75561.38
2022-09-28T02:30:37.251Z,75557.53
2022-09-28T02:33:23.243Z,75557.53
2022-09-28T02:35:50.478Z,75557.53
2022-09-28T02:38:18.874Z,75557.53
2022-09-28T02:41:17.756Z,75549.81
2022-09-28T02:44:01.697Z,75555.59
2022-09-28T02:46:56.177Z,75544.03
2022-09-28T02:49:42.577Z,75549.81
2022-09-28T02:52:21.542Z,75549.81
2022-09-28T02:55:12.723Z,75557.53
2022-09-28T02:57:53.448Z,75549.81
2022-09-28T03:00:22.848Z,75545.97
2022-09-28T03:02:58.809Z,75542.09
2022-09-28T03:05:28.714Z,75542.09
2022-09-28T03:08:03.581Z,75545.97
2022-09-28T03:10:39.238Z,75553.66
2022-09-28T03:13:06.922Z,75557.53
2022-09-28T03:15:35.998Z,75555.59
2022-09-28T03:18:03.577Z,75557.53
2022-09-28T03:20:33.475Z,75555.59
2022-09-28T03:25:48.684Z,75557.53
2022-09-28T03:28:15.403Z,75561.38
2022-09-28T03:30:43.486Z,75553.66
2022-09-28T03:33:10.712Z,75555.59
2022-09-28T03:35:38.381Z,75563.31
2022-09-28T03:38:05.178Z,75549.81
2022-09-28T03:40:34.469Z,75549.81
2022-09-28T03:43:01.551Z,75542.09
2022-09-28T03:45:28.509Z,75534.41
2022-09-28T03:47:55.414Z,75534.41
2022-09-28T03:50:22.093Z,75515.13
2022-09-28T03:52:48.727Z,75513.22
2022-09-28T03:55:15.886Z,75499.72
2022-09-28T03:57:42.942Z,75488.16
2022-09-28T04:00:11.034Z,75482.38
2022-09-28T04:02:40.710Z,75476.59
2022-09-28T04:05:10.459Z,75474.69
2022-09-28T04:07:37.772Z,75470.81
2022-09-28T04:10:04.719Z,75463.13
2022-09-28T04:12:31.375Z,75455.41
2022-09-28T04:14:58.016Z,75449.63
2022-09-28T04:17:24.728Z,75432.31
2022-09-28T04:19:51.977Z,75420.75
2022-09-28T04:22:40.077Z,75411.13
2022-09-28T04:25:07.358Z,75411.13
2022-09-28T04:27:52.748Z,75411.13
2022-09-28T04:30:19.434Z,75399.56
2022-09-28T04:32:47.390Z,75399.56
2022-09-28T04:35:15.008Z,75391.84
2022-09-28T04:37:42.093Z,75389.91
2022-09-28T04:40:09.500Z,75397.63
2022-09-28T04:42:37.686Z,75399.56
2022-09-28T04:45:05.081Z,75399.56
2022-09-28T04:47:35.099Z,75407.25
2022-09-28T04:50:29.990Z,75414.97
2022-09-28T04:53:06.003Z,75413.03
2022-09-28T04:55:32.704Z,75411.13
2022-09-28T04:58:02.557Z,75418.81
2022-09-28T05:00:33.207Z,75430.38
2022-09-28T05:03:09.495Z,75441.94
2022-09-28T05:05:55.220Z,75443.88
2022-09-28T05:08:41.861Z,75445.78
2022-09-28T05:11:11.563Z,75432.31
2022-09-28T05:13:43.814Z,75391.84
2022-09-28T05:16:13.158Z,75268.56
2022-09-28T05:19:02.956Z,75022.00
2022-09-28T05:21:30.849Z,74773.53
2022-09-28T05:23:58.406Z,74561.69
2022-09-28T05:26:25.817Z,74382.59
2022-09-28T05:28:52.643Z,74463.47
2022-09-28T05:31:42.765Z,74611.75
2022-09-28T05:34:17.497Z,74773.53
2022-09-28T05:36:45.749Z,74825.53
2022-09-28T05:39:12.447Z,74814.00
2022-09-28T05:41:39.182Z,74896.81
2022-09-28T05:44:05.838Z,74943.03
2022-09-28T05:46:32.666Z,74968.06
2022-09-28T05:49:01.171Z,74977.72
2022-09-28T05:51:28.184Z,75035.50
2022-09-28T05:53:55.859Z,74956.53
2022-09-28T05:56:24.674Z,74677.25
2022-09-28T05:58:52.419Z,74419.16
2022-09-28T06:01:22.895Z,74282.44
2022-09-28T06:03:49.703Z,74151.50
2022-09-28T06:06:16.538Z,74059.06
2022-09-28T06:08:46.288Z,73974.34
2022-09-28T06:11:32.671Z,73889.63
2022-09-28T06:14:05.125Z,73889.63
2022-09-28T06:16:32.533Z,73908.88
2022-09-28T06:18:59.412Z,73839.56
2022-09-28T06:21:56.227Z,73874.22
2022-09-28T06:24:25.265Z,73839.56
2022-09-28T06:26:52.820Z,73866.50
2022-09-28T06:29:20.768Z,73885.75
2022-09-28T06:31:47.735Z,73828.00
2022-09-28T06:34:14.851Z,73939.69
2022-09-28T06:36:41.727Z,73922.34
2022-09-28T06:39:09.102Z,73901.16
2022-09-28T06:41:36.796Z,73966.63
2022-09-28T06:44:13.414Z,73928.13
2022-09-28T06:46:58.743Z,73891.53
2022-09-28T06:49:37.098Z,73866.50
2022-09-28T06:52:27.433Z,73828.00
2022-09-28T06:55:07.728Z,73777.94
2022-09-28T06:57:42.774Z,73725.94
2022-09-28T07:00:10.577Z,73716.31
2022-09-28T07:02:37.795Z,73804.91
2022-09-28T07:05:06.239Z,73735.59
2022-09-28T07:07:56.944Z,73831.84
2022-09-28T07:10:46.473Z,73806.81
2022-09-28T07:16:15.347Z,73762.53
2022-09-28T07:18:42.324Z,73816.44
2022-09-28T07:21:15.820Z,73893.47
2022-09-28T07:23:53.546Z,73974.34
2022-09-28T07:26:24.725Z,74216.97
2022-09-28T07:29:01.114Z,74251.63
2022-09-28T07:31:40.585Z,74120.69
2022-09-28T07:34:19.217Z,74066.78
2022-09-28T07:36:58.187Z,74398.00
2022-09-28T07:39:25.446Z,74243.94
2022-09-28T07:41:56.730Z,74240.06
2022-09-28T07:44:26.903Z,74507.75
2022-09-28T07:46:54.381Z,74424.94
2022-09-28T07:49:26.962Z,74459.63
2022-09-28T07:52:12.538Z,74440.34
2022-09-28T07:54:58.205Z,74378.72
2022-09-28T07:57:48.297Z,74413.41
2022-09-28T08:00:31.990Z,74461.53
2022-09-28T08:03:01.831Z,74559.75
2022-09-28T08:05:32.257Z,74594.44
2022-09-28T08:07:59.782Z,74650.28
2022-09-28T08:10:28.600Z,74617.53
2022-09-28T08:13:02.875Z,74671.47
2022-09-28T08:16:08.879Z,74783.16
2022-09-28T08:18:52.681Z,74852.50
2022-09-28T08:21:40.165Z,74844.81
2022-09-28T08:24:07.242Z,74873.69
2022-09-28T08:26:34.127Z,74887.19
2022-09-28T08:29:00.868Z,74850.59
2022-09-28T08:31:48.587Z,74873.69
2022-09-28T08:34:39.638Z,74900.66
2022-09-28T08:37:21.910Z,74790.88
2022-09-28T08:40:28.655Z,74821.69
2022-09-28T08:43:07.416Z,74864.06
2022-09-28T08:46:07.359Z,74842.88
2022-09-28T08:49:28.026Z,74810.13
2022-09-28T08:52:13.587Z,74717.69
2022-09-28T08:55:07.246Z,74683.03
2022-09-28T08:57:48.411Z,74632.94
2022-09-28T09:00:21.748Z,74573.25
2022-09-28T09:02:49.489Z,74548.22
2022-09-28T09:05:22.268Z,74525.09
2022-09-28T09:08:35.623Z,74507.75
2022-09-28T09:11:20.199Z,74465.41
2022-09-28T09:14:02.401Z,74417.25
2022-09-28T09:16:51.247Z,74351.78
2022-09-28T09:20:04.517Z,74386.44
2022-09-28T09:22:58.977Z,74421.09
2022-09-28T09:25:48.300Z,74409.53
2022-09-28T09:28:30.306Z,74390.28
2022-09-28T09:31:22.589Z,74365.25
2022-09-28T09:33:59.067Z,74313.25
2022-09-28T09:37:29.510Z,74251.63
2022-09-28T09:40:31.048Z,74209.25
2022-09-28T09:43:30.982Z,74163.06
2022-09-28T09:46:24.428Z,74155.34
2022-09-28T09:49:07.305Z,74178.47
2022-09-28T09:51:45.835Z,74170.75
2022-09-28T09:54:23.989Z,74116.84
2022-09-28T09:57:05.923Z,74051.38
2022-09-28T09:59:49.191Z,74016.69
2022-09-28T10:02:28.511Z,73968.56
2022-09-28T10:05:21.911Z,73974.34
2022-09-28T10:07:58.465Z,74047.50
2022-09-28T10:10:33.483Z,74016.69
2022-09-28T10:13:06.814Z,73970.50
2022-09-28T10:15:35.472Z,73970.50
2022-09-28T10:18:14.753Z,73939.69
2022-09-28T10:21:00.272Z,73920.44
2022-09-28T10:23:55.106Z,73918.50
2022-09-28T10:26:55.564Z,73931.97
2022-09-28T10:29:26.270Z,73906.94
2022-09-28T10:31:54.587Z,73970.50
2022-09-28T10:34:35.584Z,74005.16
2022-09-28T10:37:11.126Z,73997.44
2022-09-28T10:39:56.540Z,74018.63
2022-09-28T10:42:31.722Z,74016.69
2022-09-28T10:45:07.521Z,74039.81
2022-09-28T10:47:43.593Z,74062.91
2022-09-28T10:50:20.761Z,74059.06
2022-09-28T10:52:48.302Z,74101.44
2022-09-28T10:55:36.986Z,74072.53
2022-09-28T10:58:34.264Z,74068.69
2022-09-28T11:01:09.577Z,74101.44
2022-09-28T11:04:01.751Z,74080.25
2022-09-28T11:06:37.096Z,74057.13
2022-09-28T11:09:15.084Z,74084.09
2022-09-28T11:11:42.845Z,74082.16
2022-09-28T11:14:26.755Z,74103.34
2022-09-28T11:17:16.648Z,74076.41
2022-09-28T11:19:45.593Z,74074.47
2022-09-28T11:22:29.922Z,74093.72
2022-09-28T11:25:16.408Z,74112.97
2022-09-28T11:27:52.215Z,74132.25
2022-09-28T11:30:29.409Z,74118.75
2022-09-28T11:33:42.477Z,74074.47
2022-09-28T11:36:14.911Z,74055.22
2022-09-28T11:38:57.957Z,74022.47
2022-09-28T11:41:58.801Z,73999.38
2022-09-28T11:44:41.298Z,74005.16
2022-09-28T11:47:39.382Z,74032.09
2022-09-28T11:50:28.135Z,74041.72
2022-09-28T11:53:22.268Z,74024.41
2022-09-28T11:56:08.985Z,74039.81
2022-09-28T11:58:45.934Z,74024.41
2022-09-28T12:01:19.065Z,74003.22
2022-09-28T12:04:17.399Z,74012.84
2022-09-28T12:06:51.823Z,74034.03
2022-09-28T12:09:51.319Z,74005.16
2022-09-28T12:12:32.382Z,74022.47
2022-09-28T12:15:21.656Z,74020.56
2022-09-28T12:18:00.338Z,74024.41
2022-09-28T12:20:38.547Z,74001.28
2022-09-28T12:23:13.022Z,73985.91
2022-09-28T12:25:48.167Z,73964.72
2022-09-28T12:28:45.970Z,73964.72
2022-09-28T12:31:23.591Z,73978.19
2022-09-28T12:33:52.167Z,73951.22
2022-09-28T12:37:10.129Z,73949.31
2022-09-28T12:39:57.841Z,73974.34
2022-09-28T12:43:00.168Z,73983.97
2022-09-28T12:46:06.652Z,73974.34
2022-09-28T12:48:44.783Z,73987.81
2022-09-28T12:51:52.372Z,73966.63
2022-09-28T12:54:27.737Z,73941.59
2022-09-28T12:57:06.390Z,73931.97
2022-09-28T12:59:39.950Z,73912.72
2022-09-28T13:02:43.929Z,73928.13
2022-09-28T13:05:56.070Z,73928.13
2022-09-28T13:08:28.517Z,73943.53
2022-09-28T13:11:10.289Z,73935.84
2022-09-28T13:13:45.533Z,73924.28
2022-09-28T13:16:37.636Z,73916.56
2022-09-28T13:19:19.547Z,73939.69
2022-09-28T13:22:01.450Z,73933.91
2022-09-28T13:24:33.809Z,73951.22
2022-09-28T13:27:10.466Z,73964.72
2022-09-28T13:32:09.674Z,73999.38
2022-09-28T13:34:38.058Z,74012.84
2022-09-28T13:37:24.841Z,74035.97
2022-09-28T13:39:52.213Z,74055.22
2022-09-28T13:42:52.966Z,74074.47
2022-09-28T13:45:22.617Z,74082.16
2022-09-28T13:47:52.400Z,74082.16
2022-09-28T13:50:43.263Z,74089.88
2022-09-28T13:53:28.682Z,74087.94
2022-09-28T13:56:30.291Z,74078.31
2022-09-28T13:59:34.449Z,74089.88
2022-09-28T14:02:12.734Z,74091.81
2022-09-28T14:04:56.260Z,74095.66
2022-09-28T14:07:34.997Z,74086.03
2022-09-28T14:10:20.981Z,74091.81
2022-09-28T14:12:51.627Z,74093.72
2022-09-28T14:15:47.648Z,74091.81
2022-09-28T14:18:24.903Z,74105.28
2022-09-28T14:21:29.502Z,74103.34
2022-09-28T14:24:55.524Z,74101.44
2022-09-28T14:27:44.318Z,74101.44
2022-09-28T14:30:11.236Z,74097.59
2022-09-28T14:32:41.178Z,74097.59
2022-09-28T14:35:35.211Z,74101.44
2022-09-28T14:38:32.722Z,74097.59
2022-09-28T14:41:17.715Z,74111.06
2022-09-28T14:43:44.444Z,74109.13
2022-09-28T14:46:11.464Z,74120.69
2022-09-28T14:48:54.831Z,74128.38
2022-09-28T14:51:27.269Z,74124.53
2022-09-28T14:54:12.769Z,74118.75
2022-09-28T14:56:57.159Z,74136.09
2022-09-28T14:59:26.222Z,74151.50
2022-09-28T15:02:11.481Z,74147.66
2022-09-28T15:05:20.514Z,74157.28
2022-09-28T15:07:51.653Z,74159.19
2022-09-28T15:10:33.881Z,74170.75
2022-09-28T15:13:16.190Z,74174.59
2022-09-28T15:15:46.816Z,74182.31
2022-09-28T15:18:30.401Z,74186.16
2022-09-28T15:20:57.876Z,74191.94
2022-09-28T15:23:36.097Z,74201.56
2022-09-28T15:26:07.198Z,74211.19
2022-09-28T15:28:43.687Z,74215.03
2022-09-28T15:31:18.749Z,74232.38
2022-09-28T15:34:04.110Z,74236.22
2022-09-28T15:36:44.174Z,74245.84
2022-09-28T15:39:31.509Z,74255.47
2022-09-28T15:41:59.592Z,74263.19
2022-09-28T15:44:32.329Z,74268.97
2022-09-28T15:47:16.839Z,74278.59
2022-09-28T15:49:58.657Z,74284.38
2022-09-28T15:52:36.457Z,74294.00
2022-09-28T15:55:34.893Z,74303.63
2022-09-28T15:58:07.798Z,74309.41
2022-09-28T16:00:35.181Z,74313.25
2022-09-28T16:03:09.419Z,74319.03
2022-09-28T16:05:49.223Z,74328.66
2022-09-28T16:08:42.097Z,74332.50
2022-09-28T16:11:24.312Z,74342.16
2022-09-28T16:13:53.592Z,74353.69
2022-09-28T16:16:26.731Z,74359.47
2022-09-28T16:18:55.605Z,74372.94
2022-09-28T16:21:47.079Z,74390.28
2022-09-28T16:24:30.439Z,74405.69
2022-09-28T16:27:01.596Z,74411.47
2022-09-28T16:29:39.840Z,74424.94
2022-09-28T16:32:48.115Z,74440.34
2022-09-28T16:35:25.958Z,74444.22
2022-09-28T16:38:09.207Z,74463.47
2022-09-28T16:40:40.889Z,74475.03
2022-09-28T16:43:18.131Z,74486.56
2022-09-28T16:45:44.809Z,74494.28
2022-09-28T16:48:19.310Z,74498.13
2022-09-28T16:50:47.432Z,74498.13
2022-09-28T16:53:36.184Z,74502.00
2022-09-28T16:56:04.668Z,74502.00
2022-09-28T16:58:31.980Z,74505.84
2022-09-28T17:00:59.770Z,74517.38
2022-09-28T17:03:28.294Z,74523.16
2022-09-28T17:05:55.533Z,74528.94
2022-09-28T17:08:25.068Z,74528.94
2022-09-28T17:11:24.184Z,74528.94
2022-09-28T17:13:51.927Z,74530.88
2022-09-28T17:16:32.638Z,74532.81
2022-09-28T17:19:18.443Z,74536.66
2022-09-28T17:21:45.908Z,74548.22
2022-09-28T17:24:12.635Z,74555.91
2022-09-28T17:26:40.423Z,74552.06
2022-09-28T17:29:09.774Z,74557.84
2022-09-28T17:31:36.406Z,74565.53
2022-09-28T17:34:03.089Z,74567.47
2022-09-28T17:36:30.496Z,74580.94
2022-09-28T17:38:57.354Z,74582.88
2022-09-28T17:41:24.206Z,74590.56
2022-09-28T17:43:50.906Z,74598.28
2022-09-28T17:46:38.870Z,74609.84
2022-09-28T17:49:07.296Z,74609.84
2022-09-28T17:51:37.701Z,74621.38
2022-09-28T17:54:06.938Z,74629.09
2022-09-28T17:56:34.543Z,74638.72
2022-09-28T17:59:04.827Z,74636.81
2022-09-28T18:01:34.646Z,74640.66
2022-09-28T18:04:06.041Z,74636.81
2022-09-28T18:06:37.278Z,74648.34
2022-09-28T18:09:04.815Z,74656.06
2022-09-28T18:11:33.522Z,74667.63
2022-09-28T18:14:00.657Z,74671.47
2022-09-28T18:16:28.996Z,74677.25
2022-09-28T18:18:56.152Z,74675.31
2022-09-28T18:21:22.880Z,74671.47
2022-09-28T18:23:49.633Z,74665.69
2022-09-28T18:26:19.032Z,74667.63
2022-09-28T18:28:46.758Z,74667.63
2022-09-28T18:31:15.476Z,74675.31
2022-09-28T18:33:43.386Z,74669.53
2022-09-28T18:36:10.196Z,74669.53
2022-09-28T18:38:38.409Z,74667.63
2022-09-28T18:41:08.502Z,74659.91
2022-09-28T18:43:36.481Z,74659.91
2022-09-28T18:46:09.380Z,74652.22
2022-09-28T18:48:36.982Z,74654.13
2022-09-28T18:51:08.197Z,74657.97
2022-09-28T18:53:35.456Z,74665.69
2022-09-28T18:56:10.987Z,74671.47
2022-09-28T18:58:39.677Z,74677.25
2022-09-28T19:01:31.393Z,74683.03
2022-09-28T19:04:00.641Z,74681.09
2022-09-28T19:06:27.842Z,74688.81
2022-09-28T19:08:58.009Z,74686.88
2022-09-28T19:11:25.563Z,74686.88
2022-09-28T19:13:53.630Z,74690.72
2022-09-28T19:16:31.175Z,74702.28
2022-09-28T19:18:58.811Z,74706.13
2022-09-28T19:21:26.866Z,74706.13
2022-09-28T19:23:56.253Z,74679.16
2022-09-28T19:26:28.161Z,74686.88
2022-09-28T19:28:59.026Z,74694.56
2022-09-28T19:31:26.663Z,74706.13
2022-09-28T19:33:53.330Z,74713.84
2022-09-28T19:36:23.686Z,74715.75
2022-09-28T19:38:52.357Z,74713.84
2022-09-28T19:41:43.387Z,74711.91
2022-09-28T19:44:26.759Z,74713.84
2022-09-28T19:46:57.626Z,74698.44
2022-09-28T19:49:27.036Z,74713.84
2022-09-28T19:52:12.272Z,74706.13
2022-09-28T19:54:57.062Z,74702.28
2022-09-28T19:57:29.356Z,74704.22
2022-09-28T20:00:01.741Z,74706.13
2022-09-28T20:02:32.530Z,74706.13
2022-09-28T20:04:59.383Z,74704.22
2022-09-28T20:07:26.036Z,74709.97
2022-09-28T20:09:52.679Z,74709.97
2022-09-28T20:12:19.415Z,74711.91
2022-09-28T20:14:46.294Z,74725.41
2022-09-28T20:17:12.977Z,74725.41
2022-09-28T20:19:39.693Z,74729.25
2022-09-28T20:22:06.381Z,74733.09
2022-09-28T20:24:33.100Z,74736.94
2022-09-28T20:27:01.373Z,74740.81
2022-09-28T20:29:28.559Z,74738.88
2022-09-28T20:31:55.220Z,74748.50
2022-09-28T20:34:21.845Z,74752.34
2022-09-28T20:36:48.751Z,74760.06
2022-09-28T20:39:15.517Z,74773.53
2022-09-28T20:41:42.432Z,74779.31
2022-09-28T20:44:09.902Z,74787.03
2022-09-28T20:46:37.363Z,74794.72
2022-09-28T20:49:05.160Z,74796.66
2022-09-28T20:51:31.840Z,74806.28
2022-09-28T20:53:59.291Z,74810.13
2022-09-28T20:56:27.101Z,74815.91
2022-09-28T20:58:54.774Z,74817.84
2022-09-28T21:01:30.295Z,74817.84
2022-09-28T21:03:59.432Z,74825.53
2022-09-28T21:06:28.668Z,74837.09
2022-09-28T21:08:57.981Z,74844.81
2022-09-28T21:11:26.581Z,74856.38
2022-09-28T21:13:55.704Z,74862.13
2022-09-28T21:16:22.652Z,74860.22
2022-09-28T21:18:49.334Z,74864.06
2022-09-28T21:21:18.423Z,74867.91
2022-09-28T21:23:45.362Z,74871.78
2022-09-28T21:26:15.989Z,74873.69
2022-09-28T21:28:44.652Z,74879.47
2022-09-28T21:31:12.845Z,74883.31
2022-09-28T21:33:39.595Z,74879.47
2022-09-28T21:36:07.562Z,74887.19
2022-09-28T21:38:34.537Z,74887.19
2022-09-28T21:41:01.351Z,74894.88
2022-09-28T21:43:29.962Z,74894.88
2022-09-28T21:45:58.167Z,74902.59
2022-09-28T21:48:27.427Z,74900.66
2022-09-28T21:50:59.553Z,74910.28
2022-09-28T21:53:29.029Z,74916.06
2022-09-28T21:55:58.007Z,74914.16
2022-09-28T21:58:27.091Z,74918.00
2022-09-28T22:01:01.412Z,74918.00
2022-09-28T22:03:29.069Z,74927.63
2022-09-28T22:05:55.735Z,74927.63
2022-09-28T22:08:23.601Z,74937.25
2022-09-28T22:11:06.455Z,74933.41
2022-09-28T22:13:35.240Z,74937.25
2022-09-28T22:16:02.819Z,74937.25
2022-09-28T22:18:31.044Z,74950.75
2022-09-28T22:21:10.587Z,74948.81
2022-09-28T22:23:38.853Z,74948.81
2022-09-28T22:26:11.158Z,74952.66
2022-09-28T22:28:37.924Z,74960.38
2022-09-28T22:31:04.827Z,74962.28
2022-09-28T22:33:31.759Z,74966.16
2022-09-28T22:35:58.435Z,74968.06
2022-09-28T22:38:25.261Z,74968.06
2022-09-28T22:40:56.329Z,74975.78
2022-09-28T22:43:24.460Z,74985.41
2022-09-28T22:46:04.656Z,75002.75
2022-09-28T22:48:31.794Z,75008.53
2022-09-28T22:50:59.162Z,75010.44
2022-09-28T22:53:25.880Z,75022.00
2022-09-28T22:55:52.584Z,75025.84
2022-09-28T22:58:19.315Z,75025.84
2022-09-28T23:00:46.229Z,75027.78
2022-09-28T23:03:12.922Z,75033.56
2022-09-28T23:05:39.583Z,75033.56
2022-09-28T23:08:07.478Z,75037.41
2022-09-28T23:10:34.105Z,75041.28
2022-09-28T23:13:00.764Z,75060.53
2022-09-28T23:15:28.937Z,75075.94
2022-09-28T23:17:55.720Z,75077.88
2022-09-28T23:20:22.448Z,75087.50
2022-09-28T23:22:49.907Z,75083.66
2022-09-28T23:25:18.244Z,75099.06
2022-09-28T23:27:49.149Z,75104.84
2022-09-28T23:30:17.455Z,75114.47
2022-09-28T23:32:44.822Z,75120.25
2022-09-28T23:35:12.003Z,75120.25
2022-09-28T23:37:38.845Z,75124.09
2022-09-28T23:40:06.462Z,75129.88
2022-09-28T23:42:35.506Z,75129.88
2022-09-28T23:45:02.245Z,75131.81
2022-09-28T23:47:28.843Z,75133.72
2022-09-28T23:49:55.438Z,75135.66
2022-09-28T23:52:22.116Z,75141.44
2022-09-28T23:54:48.841Z,75135.66
2022-09-28T23:57:15.758Z,75141.44
2022-09-28T23:59:42.405Z,75153.00
